Terminal Aerodrome Forecast
Issued by NWS Austin/San Antonio, TX

Home | Current Version | Previous Version | Text Only | Print | Product List | Glossary On
Versions: 1 2 3 4 5 6 7 8 9 10 11 12 13 14 15 16 17
873
FTUS44 KEWX 291137
TAFSAT
TAF
KSAT 291137Z 2912/3018 14011KT P6SM SCT021 OVC028
     FM291700 17012KT P6SM SCT035 SCT250
     FM300200 35015G25KT P6SM SHRA BKN035
      TEMPO 3002/3005 TSRA SCT010 BKN035CB
     FM300600 35010KT P6SM FEW025 BKN070
     FM301500 30012KT P6SM FEW090=

USA.gov is the U.S. government's official web portal to all federal, state and local government web resources and services.